Time;durP1;ratioP1;P1;durP2;ratioP2;P2;SDS_P1;SDS_P2;PMS_P1;PMS_P2;Temp;Humidity;BMP_temperature;BMP_pressure;BME280_temperature;BME280_humidity;BME280_pressure;Samples;Min_cycle;Max_cycle;Signal;HPM_P1;HPM_P2
2023/09/06 00:00:29;;;;;;;4.55;1.50;;;22.00;82.10;;;;;;5031595;28;20025;-82
2023/09/06 00:02:56;;;;;;;4.35;1.90;;;21.90;82.00;;;;;;5031633;28;20025;-82
2023/09/06 00:05:22;;;;;;;3.42;1.65;;;22.00;82.00;;;;;;5031506;28;20476;-82
2023/09/06 00:07:47;;;;;;;4.22;1.90;;;21.90;82.00;;;;;;5031745;28;20093;-82
2023/09/06 00:10:14;;;;;;;3.78;1.60;;;21.90;82.00;;;;;;5031417;28;20029;-82
2023/09/06 00:12:40;;;;;;;6.35;1.73;;;21.80;81.90;;;;;;5031611;28;20048;-82
2023/09/06 00:15:08;;;;;;;5.93;1.42;;;21.90;81.80;;;;;;5031680;28;20412;-82
2023/09/06 00:17:37;;;;;;;4.00;1.45;;;21.90;81.70;;;;;;5031395;28;20457;-82
2023/09/06 00:20:20;;;;;;;3.47;2.00;;;21.80;81.60;;;;;;5031495;28;20072;-82
2023/09/06 00:22:53;;;;;;;3.45;1.42;;;21.90;81.60;;;;;;5027797;28;20132;-82
2023/09/06 00:25:19;;;;;;;3.65;1.60;;;21.80;81.50;;;;;;5031146;28;20040;-82
2023/09/06 00:27:44;;;;;;;4.22;1.70;;;21.80;81.40;;;;;;5031254;28;20029;-82
2023/09/06 00:30:10;;;;;;;4.80;1.85;;;21.80;81.40;;;;;;5033810;28;20120;-82
2023/09/06 00:32:35;;;;;;;3.70;1.60;;;21.80;81.40;;;;;;5035123;28;20080;-82
2023/09/06 00:35:01;;;;;;;4.00;1.80;;;21.70;81.40;;;;;;5035187;28;20026;-82
2023/09/06 00:37:40;;;;;;;3.35;1.73;;;21.80;81.50;;;;;;5033569;28;20031;-82
2023/09/06 00:40:21;;;;;;;4.85;1.85;;;21.70;81.40;;;;;;5033950;28;20439;-82
2023/09/06 00:42:59;;;;;;;2.97;1.38;;;21.70;81.30;;;;;;5035348;28;20500;-81
2023/09/06 00:45:30;;;;;;;5.95;1.50;;;21.60;81.30;;;;;;5035133;28;20128;-82
2023/09/06 00:47:57;;;;;;;3.80;1.77;;;21.60;81.30;;;;;;5035676;28;20439;-82
2023/09/06 00:50:23;;;;;;;3.03;1.65;;;21.60;81.30;;;;;;5035172;28;20029;-82
2023/09/06 00:52:51;;;;;;;3.95;1.88;;;21.50;81.30;;;;;;5035067;28;20157;-82
2023/09/06 00:55:19;;;;;;;4.72;1.95;;;21.50;81.30;;;;;;5035491;28;20017;-82
2023/09/06 00:57:45;;;;;;;3.45;2.03;;;21.60;81.40;;;;;;5035028;28;20080;-82
2023/09/06 01:00:19;;;;;;;3.00;1.50;;;21.50;81.60;;;;;;5035365;28;20468;-82
2023/09/06 01:02:47;;;;;;;5.75;2.15;;;21.40;81.50;;;;;;5034853;28;20026;-81
2023/09/06 01:05:13;;;;;;;3.20;1.30;;;21.40;81.70;;;;;;5034957;28;20045;-82
2023/09/06 01:07:40;;;;;;;5.22;1.63;;;21.30;81.80;;;;;;5034567;28;20066;-83
2023/09/06 01:10:06;;;;;;;3.83;1.60;;;21.30;81.90;;;;;;5034907;28;20095;-82
2023/09/06 01:12:34;;;;;;;3.22;1.30;;;21.30;82.10;;;;;;5033608;28;20541;-82
2023/09/06 01:15:01;;;;;;;3.33;1.60;;;21.20;82.20;;;;;;5034608;28;20495;-83
2023/09/06 01:17:27;;;;;;;3.25;1.65;;;21.20;82.30;;;;;;5034562;28;20129;-82
2023/09/06 01:20:09;;;;;;;6.47;1.80;;;21.30;82.50;;;;;;5034701;28;20029;-82
2023/09/06 01:22:41;;;;;;;4.53;1.80;;;21.20;82.70;;;;;;5034493;28;20113;-82
2023/09/06 01:25:08;;;;;;;4.40;1.92;;;21.10;82.70;;;;;;5034325;28;20046;-82
2023/09/06 01:27:35;;;;;;;4.50;1.80;;;21.10;82.80;;;;;;5034300;28;20420;-82
2023/09/06 01:30:00;;;;;;;4.20;1.90;;;21.10;82.80;;;;;;5034822;28;20022;-82
2023/09/06 01:32:26;;;;;;;4.75;2.03;;;21.00;82.80;;;;;;5034405;28;20036;-82
2023/09/06 01:34:54;;;;;;;6.82;2.00;;;21.00;82.90;;;;;;5034360;28;20021;-82
2023/09/06 01:37:21;;;;;;;6.10;2.55;;;20.90;82.90;;;;;;5034325;28;20026;-81
2023/09/06 01:39:47;;;;;;;4.93;2.00;;;20.90;83.00;;;;;;5034073;28;20373;-81
2023/09/06 01:42:12;;;;;;;3.80;1.70;;;20.90;83.20;;;;;;5033244;28;20026;-81
2023/09/06 01:44:38;;;;;;;4.50;2.38;;;20.80;83.30;;;;;;5034059;28;20400;-81
2023/09/06 01:47:04;;;;;;;5.60;1.73;;;20.80;83.40;;;;;;5034033;28;20065;-82
2023/09/06 01:49:29;;;;;;;4.90;1.95;;;20.80;83.50;;;;;;5034207;28;20029;-81
2023/09/06 01:51:57;;;;;;;5.80;2.15;;;20.70;83.60;;;;;;5034096;28;20053;-81
2023/09/06 01:54:23;;;;;;;5.47;1.85;;;20.70;83.80;;;;;;5034267;28;20029;-81
2023/09/06 01:56:49;;;;;;;3.42;1.90;;;20.70;83.90;;;;;;5034111;28;20482;-81
2023/09/06 01:59:15;;;;;;;2.95;1.67;;;20.60;84.00;;;;;;5034009;28;20076;-81
2023/09/06 02:01:40;;;;;;;5.60;2.33;;;20.60;84.20;;;;;;5033860;28;20034;-81
2023/09/06 02:04:06;;;;;;;3.90;1.85;;;20.50;84.20;;;;;;5033958;28;20027;-81
2023/09/06 02:06:32;;;;;;;3.90;2.15;;;20.50;84.40;;;;;;5033631;28;20030;-81
2023/09/06 02:08:57;;;;;;;3.97;2.10;;;20.50;84.50;;;;;;5033630;28;20369;-82
2023/09/06 02:11:23;;;;;;;5.55;1.83;;;20.50;84.70;;;;;;5033473;28;20052;-82
2023/09/06 02:13:49;;;;;;;5.30;1.63;;;20.40;84.70;;;;;;5033339;28;20032;-82
2023/09/06 02:16:16;;;;;;;3.38;1.63;;;20.40;84.80;;;;;;5048806;28;20025;-81
2023/09/06 02:18:42;;;;;;;3.60;1.88;;;20.40;84.90;;;;;;5033615;28;20068;-81
2023/09/06 02:21:07;;;;;;;4.32;1.92;;;20.40;84.90;;;;;;5033468;28;20034;-81
2023/09/06 02:23:34;;;;;;;4.63;2.40;;;20.30;84.90;;;;;;5033057;28;20075;-81
2023/09/06 02:25:59;;;;;;;6.05;2.55;;;20.30;85.10;;;;;;5033211;28;20037;-82
2023/09/06 02:28:25;;;;;;;7.95;1.90;;;20.30;85.00;;;;;;5033180;28;20030;-81
2023/09/06 02:30:50;;;;;;;4.97;1.92;;;20.30;85.10;;;;;;5033614;28;20034;-81
2023/09/06 02:33:16;;;;;;;5.88;1.80;;;20.30;85.20;;;;;;5033167;28;20145;-81
2023/09/06 02:35:42;;;;;;;4.60;2.08;;;20.20;85.30;;;;;;5033233;28;20017;-81
2023/09/06 02:38:09;;;;;;;4.45;1.80;;;20.20;85.30;;;;;;5033163;28;20112;-82
2023/09/06 02:40:35;;;;;;;4.03;1.75;;;20.10;85.30;;;;;;5033354;28;20447;-82
2023/09/06 02:43:04;;;;;;;3.63;1.80;;;20.10;85.40;;;;;;5033101;28;20090;-82
2023/09/06 02:45:36;;;;;;;4.00;1.63;;;20.10;85.40;;;;;;5032935;28;20037;-82
2023/09/06 02:48:06;;;;;;;3.40;2.00;;;20.10;85.50;;;;;;5033330;28;20095;-82
2023/09/06 02:50:34;;;;;;;4.57;2.05;;;20.00;85.50;;;;;;5032974;28;20030;-82
2023/09/06 02:53:01;;;;;;;4.95;2.17;;;20.00;85.60;;;;;;5032747;28;20116;-82
2023/09/06 02:55:27;;;;;;;3.90;1.92;;;20.00;85.70;;;;;;5033091;28;20021;-82
2023/09/06 02:57:56;;;;;;;5.55;2.67;;;20.00;85.80;;;;;;5032641;28;20025;-81
2023/09/06 03:00:25;;;;;;;6.20;2.03;;;20.00;85.80;;;;;;5033148;28;20408;-82
2023/09/06 03:03:05;;;;;;;4.15;1.70;;;19.90;85.80;;;;;;5032663;28;20028;-81
2023/09/06 03:05:31;;;;;;;6.65;2.22;;;19.90;85.80;;;;;;5032705;28;20037;-81
2023/09/06 03:07:57;;;;;;;5.22;2.10;;;19.90;85.90;;;;;;5032466;28;20111;-82
2023/09/06 03:10:23;;;;;;;3.03;1.75;;;19.90;86.00;;;;;;5032480;28;20108;-82
2023/09/06 03:12:56;;;;;;;3.97;2.10;;;19.80;86.00;;;;;;5032637;28;20048;-82
2023/09/06 03:15:29;;;;;;;4.78;2.22;;;19.90;86.10;;;;;;5032372;28;20033;-81
2023/09/06 03:17:58;;;;;;;2.85;1.60;;;19.80;86.00;;;;;;5032404;28;20029;-81
2023/09/06 03:23:19;;;;;;;4.88;2.28;;;19.80;86.10;;;;;;5031310;28;20217;-82
2023/09/06 03:25:54;;;;;;;4.25;1.80;;;19.80;86.80;;;;;;5030887;28;20120;-82
2023/09/06 03:28:20;;;;;;;6.40;2.20;;;19.80;86.30;;;;;;5032453;28;20026;-82
2023/09/06 03:30:47;;;;;;;5.38;1.83;;;19.70;86.20;;;;;;5032121;28;20052;-81
2023/09/06 03:33:13;;;;;;;4.20;2.08;;;19.80;86.30;;;;;;5032370;28;20017;-81
2023/09/06 03:35:38;;;;;;;4.13;1.73;;;19.70;86.30;;;;;;5032192;28;20017;-81
2023/09/06 03:38:10;;;;;;;3.38;1.90;;;19.70;86.30;;;;;;5032119;28;20030;-82
2023/09/06 03:40:36;;;;;;;4.72;1.80;;;19.70;86.40;;;;;;5031828;28;20034;-81
2023/09/06 03:43:06;;;;;;;3.70;2.05;;;19.60;86.40;;;;;;5047343;28;20079;-82
2023/09/06 03:45:34;;;;;;;3.28;1.83;;;19.60;86.50;;;;;;5031863;28;20037;-81
2023/09/06 03:48:00;;;;;;;5.13;2.30;;;19.60;86.60;;;;;;5031994;28;20058;-81
2023/09/06 03:50:27;;;;;;;3.70;1.77;;;19.60;86.60;;;;;;5032290;28;20427;-82
2023/09/06 03:52:53;;;;;;;3.95;2.22;;;19.60;86.70;;;;;;5031901;28;20108;-81
2023/09/06 03:55:20;;;;;;;5.22;2.42;;;19.60;86.70;;;;;;5031778;28;20101;-82
2023/09/06 03:57:46;;;;;;;4.20;1.95;;;19.50;86.70;;;;;;5032163;28;20026;-81
2023/09/06 04:00:29;;;;;;;4.82;2.33;;;19.50;87.50;;;;;;5032371;28;20045;-82
2023/09/06 04:02:55;;;;;;;4.13;2.08;;;19.50;86.90;;;;;;5031801;28;20052;-81
2023/09/06 04:05:25;;;;;;;6.13;2.22;;;19.50;87.00;;;;;;5034395;28;20075;-81
2023/09/06 04:07:58;;;;;;;5.30;1.92;;;19.40;86.90;;;;;;5034621;28;20387;-81
2023/09/06 04:10:35;;;;;;;4.00;2.10;;;19.40;87.00;;;;;;5036291;28;20029;-81
2023/09/06 04:13:01;;;;;;;4.85;2.50;;;19.40;87.00;;;;;;5036019;28;20025;-81
2023/09/06 04:15:26;;;;;;;5.30;2.53;;;19.40;87.00;;;;;;5035462;28;20439;-82
2023/09/06 04:18:00;;;;;;;4.30;1.88;;;19.40;87.10;;;;;;5035309;28;20060;-82
2023/09/06 04:20:35;;;;;;;4.65;2.55;;;19.30;87.10;;;;;;5035661;28;20083;-81
2023/09/06 04:23:05;;;;;;;4.00;2.33;;;19.40;87.20;;;;;;5035556;28;20049;-80
2023/09/06 04:25:33;;;;;;;4.90;2.55;;;19.30;87.20;;;;;;5035629;28;20041;-81
2023/09/06 04:28:00;;;;;;;4.35;2.10;;;19.20;87.10;;;;;;5035579;28;20044;-82
2023/09/06 04:30:32;;;;;;;4.45;1.98;;;19.40;87.30;;;;;;5035695;28;20034;-82
2023/09/06 04:32:58;;;;;;;3.67;1.90;;;19.40;87.30;;;;;;5035779;28;20025;-82
2023/09/06 04:35:46;;;;;;;4.43;2.70;;;19.30;87.30;;;;;;5035366;28;20033;-82
2023/09/06 04:38:14;;;;;;;4.60;2.25;;;19.30;87.30;;;;;;5035385;28;20025;-82
2023/09/06 04:40:43;;;;;;;5.97;2.60;;;19.40;87.40;;;;;;5035585;28;20083;-82
2023/09/06 04:43:10;;;;;;;4.22;2.40;;;19.30;87.40;;;;;;5035789;28;20048;-82
2023/09/06 04:45:39;;;;;;;4.63;2.35;;;19.30;87.40;;;;;;5035311;28;20120;-82
2023/09/06 04:48:08;;;;;;;3.72;2.47;;;19.30;87.50;;;;;;5035100;28;20037;-82
2023/09/06 04:50:38;;;;;;;4.78;2.67;;;19.30;87.60;;;;;;5035035;28;20035;-81
2023/09/06 04:53:04;;;;;;;5.07;2.15;;;19.30;87.70;;;;;;5035421;28;20021;-81
2023/09/06 04:55:35;;;;;;;4.78;2.20;;;19.20;87.70;;;;;;5035916;28;20029;-81
2023/09/06 04:58:02;;;;;;;11.05;2.97;;;19.20;87.70;;;;;;5033467;28;20028;-82
2023/09/06 05:00:36;;;;;;;5.13;2.60;;;19.20;87.70;;;;;;5034832;28;20076;-82
2023/09/06 05:03:03;;;;;;;5.45;2.22;;;19.10;87.80;;;;;;5034991;28;20025;-81
2023/09/06 05:05:29;;;;;;;6.20;2.53;;;19.20;87.90;;;;;;5035131;28;20388;-81
2023/09/06 05:07:54;;;;;;;3.83;2.30;;;19.20;87.90;;;;;;5035090;28;20164;-81
2023/09/06 05:10:20;;;;;;;3.25;1.90;;;19.10;87.90;;;;;;5034744;28;20065;-82
2023/09/06 05:12:46;;;;;;;5.55;2.80;;;19.10;87.90;;;;;;5035520;28;20029;-82
2023/09/06 05:15:13;;;;;;;7.35;2.50;;;19.10;88.10;;;;;;5036037;28;20025;-81
2023/09/06 05:17:39;;;;;;;7.40;2.63;;;19.10;88.10;;;;;;5034651;28;20368;-81
2023/09/06 05:20:28;;;;;;;6.07;2.85;;;19.00;88.20;;;;;;5032948;28;20095;-81
2023/09/06 05:22:55;;;;;;;5.43;2.70;;;19.10;88.50;;;;;;5032902;28;20049;-81
2023/09/06 05:25:21;;;;;;;6.93;2.78;;;19.10;88.40;;;;;;5033521;28;20443;-81
2023/09/06 05:27:48;;;;;;;5.18;2.85;;;19.10;88.50;;;;;;5032871;28;20025;-81
2023/09/06 05:30:14;;;;;;;7.97;2.75;;;19.10;88.60;;;;;;5033880;28;20025;-81
2023/09/06 05:32:40;;;;;;;4.93;2.90;;;19.10;88.70;;;;;;5033882;28;20024;-81
2023/09/06 05:35:06;;;;;;;6.97;2.88;;;19.10;88.70;;;;;;5034242;28;20037;-81
2023/09/06 05:37:31;;;;;;;4.38;2.60;;;19.10;88.80;;;;;;5033374;28;20026;-81
2023/09/06 05:39:57;;;;;;;4.70;2.67;;;19.10;88.90;;;;;;5034659;28;20026;-81
2023/09/06 05:42:22;;;;;;;6.78;2.75;;;19.10;88.90;;;;;;5034966;28;20483;-81
2023/09/06 05:44:48;;;;;;;5.45;2.90;;;19.10;89.00;;;;;;5032862;28;20029;-81
2023/09/06 05:47:13;;;;;;;7.10;3.10;;;19.20;89.10;;;;;;5035509;28;20484;-81
2023/09/06 05:49:40;;;;;;;5.03;2.60;;;19.20;89.20;;;;;;5035279;28;20388;-81
2023/09/06 05:52:06;;;;;;;8.30;3.08;;;19.20;89.30;;;;;;5034804;28;20028;-81
2023/09/06 05:54:32;;;;;;;5.95;2.85;;;19.10;89.30;;;;;;5034399;28;20443;-82
2023/09/06 05:56:57;;;;;;;5.78;2.67;;;19.20;89.50;;;;;;5033774;28;20488;-82
2023/09/06 05:59:23;;;;;;;4.93;2.55;;;19.20;89.50;;;;;;5031558;28;20112;-82
2023/09/06 06:01:49;;;;;;;5.18;3.00;;;19.30;89.60;;;;;;5026534;28;20032;-81
2023/09/06 06:04:15;;;;;;;7.28;3.03;;;19.30;89.60;;;;;;5034752;28;20565;-82
2023/09/06 06:06:41;;;;;;;6.78;3.03;;;19.40;89.60;;;;;;5025538;28;20026;-82
2023/09/06 06:09:11;;;;;;;6.22;3.15;;;19.30;89.60;;;;;;5026742;28;20068;-82
2023/09/06 06:11:37;;;;;;;5.07;2.38;;;19.30;89.60;;;;;;5033446;28;20492;-81
2023/09/06 06:14:04;;;;;;;8.57;3.03;;;19.40;89.60;;;;;;5024393;28;20049;-82
2023/09/06 06:16:29;;;;;;;7.00;2.95;;;19.40;89.50;;;;;;5023714;28;20107;-81
2023/09/06 06:18:56;;;;;;;6.25;2.83;;;19.40;89.50;;;;;;5018451;28;20473;-82
2023/09/06 06:21:22;;;;;;;6.22;2.75;;;19.50;89.50;;;;;;5013452;28;20096;-82
2023/09/06 06:23:48;;;;;;;6.47;2.65;;;19.50;89.40;;;;;;5022886;28;20432;-81
2023/09/06 06:26:15;;;;;;;5.80;2.75;;;19.50;89.30;;;;;;5021771;28;20073;-82
2023/09/06 06:28:41;;;;;;;5.65;2.78;;;19.60;89.30;;;;;;5022573;28;20408;-81
2023/09/06 06:31:06;;;;;;;4.90;2.70;;;19.60;89.30;;;;;;5033061;28;20022;-82
2023/09/06 06:33:32;;;;;;;7.18;2.80;;;19.60;89.20;;;;;;5032414;28;20025;-81
2023/09/06 06:35:58;;;;;;;6.93;2.95;;;19.70;89.10;;;;;;5032520;28;20028;-82
2023/09/06 06:38:23;;;;;;;6.18;2.92;;;19.70;89.10;;;;;;5018260;28;20030;-83
2023/09/06 06:40:49;;;;;;;8.38;2.72;;;19.60;89.00;;;;;;5013033;28;20068;-82
2023/09/06 06:43:16;;;;;;;7.07;2.72;;;19.70;88.90;;;;;;5013044;28;20030;-83
2023/09/06 06:45:56;;;;;;;4.05;2.30;;;19.80;88.90;;;;;;5013266;28;20065;-82
2023/09/06 06:48:21;;;;;;;5.47;2.60;;;19.80;88.80;;;;;;5012738;28;20034;-82
2023/09/06 06:50:47;;;;;;;5.60;2.75;;;19.80;88.70;;;;;;5028480;28;20033;-82
2023/09/06 06:53:13;;;;;;;7.30;2.38;;;19.90;88.70;;;;;;5013050;28;20037;-82
2023/09/06 06:55:40;;;;;;;5.47;2.72;;;20.00;88.70;;;;;;5012955;28;20385;-81
2023/09/06 06:58:07;;;;;;;4.50;2.45;;;19.90;88.60;;;;;;5011048;28;20099;-81
2023/09/06 07:00:34;;;;;;;5.05;2.85;;;20.00;88.60;;;;;;5029160;28;20069;-82
2023/09/06 07:02:59;;;;;;;5.93;2.47;;;20.00;88.50;;;;;;5032336;28;20025;-82
2023/09/06 07:05:25;;;;;;;4.22;2.55;;;20.00;88.40;;;;;;5022211;28;20045;-82
2023/09/06 07:07:51;;;;;;;5.32;3.03;;;20.10;88.40;;;;;;5013400;28;20026;-82
2023/09/06 07:10:17;;;;;;;7.25;3.30;;;20.10;88.30;;;;;;5012507;28;20041;-82
2023/09/06 07:12:43;;;;;;;4.32;2.03;;;20.10;88.20;;;;;;5012702;28;20387;-81
2023/09/06 07:15:10;;;;;;;6.20;2.67;;;20.20;88.20;;;;;;5011634;28;20030;-81
2023/09/06 07:17:35;;;;;;;4.43;2.15;;;20.20;88.20;;;;;;5012554;28;20547;-81
2023/09/06 07:20:02;;;;;;;5.35;2.53;;;20.20;88.20;;;;;;5012810;28;20029;-82
2023/09/06 07:22:27;;;;;;;4.80;2.50;;;20.30;88.20;;;;;;5012179;28;20049;-81
2023/09/06 07:24:53;;;;;;;4.40;2.25;;;20.30;88.00;;;;;;5012430;28;20084;-81
2023/09/06 07:27:20;;;;;;;4.93;2.35;;;20.40;88.10;;;;;;5012015;28;20030;-81
2023/09/06 07:29:46;;;;;;;4.53;2.38;;;20.40;88.00;;;;;;5012425;28;20037;-81
2023/09/06 07:32:12;;;;;;;5.18;2.40;;;20.40;88.00;;;;;;5011848;28;20057;-81
2023/09/06 07:34:37;;;;;;;5.70;2.40;;;20.50;88.00;;;;;;5012191;28;20033;-81
2023/09/06 07:37:03;;;;;;;7.20;2.10;;;20.50;88.00;;;;;;5012328;28;20496;-81
2023/09/06 07:39:28;;;;;;;3.38;2.20;;;20.60;88.00;;;;;;5011359;28;20026;-81
2023/09/06 07:41:55;;;;;;;4.50;2.22;;;20.60;88.00;;;;;;5012485;28;20018;-81
2023/09/06 07:44:21;;;;;;;6.70;2.28;;;20.70;88.10;;;;;;5012961;28;20026;-81
2023/09/06 07:46:48;;;;;;;6.25;2.55;;;20.70;88.00;;;;;;5012229;28;20397;-81
2023/09/06 07:49:15;;;;;;;4.35;2.20;;;20.80;88.00;;;;;;5012786;28;20081;-81
2023/09/06 07:51:41;;;;;;;5.65;2.42;;;20.90;88.10;;;;;;5012682;28;20044;-81
2023/09/06 07:54:07;;;;;;;4.28;2.05;;;20.90;88.60;;;;;;5011753;28;20109;-82
2023/09/06 07:56:33;;;;;;;4.90;2.08;;;21.00;88.00;;;;;;4994122;28;20026;-81
2023/09/06 07:58:58;;;;;;;4.43;2.38;;;21.00;87.90;;;;;;5011706;28;20117;-82
2023/09/06 08:01:24;;;;;;;4.18;2.08;;;21.10;87.90;;;;;;5011737;28;20029;-81
2023/09/06 08:03:49;;;;;;;3.75;1.85;;;21.10;87.90;;;;;;5012227;28;20527;-82
2023/09/06 08:06:15;;;;;;;3.53;1.83;;;21.20;87.80;;;;;;5011869;28;20096;-81
2023/09/06 08:08:41;;;;;;;3.63;1.70;;;21.20;87.60;;;;;;5011716;28;20030;-82
2023/09/06 08:11:06;;;;;;;3.30;1.85;;;21.30;87.50;;;;;;5011875;28;20041;-82
2023/09/06 08:13:32;;;;;;;3.20;1.80;;;21.40;87.40;;;;;;5011717;28;20469;-82
2023/09/06 08:15:58;;;;;;;4.38;2.15;;;21.40;87.30;;;;;;5011722;28;20030;-82
2023/09/06 08:18:23;;;;;;;6.13;2.03;;;21.50;87.20;;;;;;5011577;28;20022;-82
2023/09/06 08:20:49;;;;;;;3.47;1.73;;;21.60;87.10;;;;;;5011806;28;20030;-82
2023/09/06 08:23:14;;;;;;;3.70;1.77;;;21.60;87.00;;;;;;5011742;28;20046;-82
2023/09/06 08:25:40;;;;;;;5.43;1.95;;;21.70;86.90;;;;;;5011452;28;20042;-82
2023/09/06 08:28:06;;;;;;;3.67;1.95;;;21.70;86.70;;;;;;5011752;28;20393;-82
2023/09/06 08:30:31;;;;;;;7.65;1.88;;;21.80;86.50;;;;;;5011651;28;20477;-82
2023/09/06 08:32:57;;;;;;;4.90;1.73;;;21.90;86.30;;;;;;5011654;28;20204;-82
2023/09/06 08:35:27;;;;;;;4.20;1.33;;;22.00;86.20;;;;;;5010312;28;20026;-82
2023/09/06 08:37:53;;;;;;;4.05;1.50;;;22.00;85.90;;;;;;5011540;28;20034;-82
2023/09/06 08:40:20;;;;;;;3.33;1.50;;;22.00;85.40;;;;;;5011451;28;20033;-83
2023/09/06 08:42:48;;;;;;;4.45;1.67;;;22.20;85.20;;;;;;5010791;28;20485;-83
2023/09/06 08:45:21;;;;;;;7.13;1.73;;;22.30;84.90;;;;;;5011775;28;20037;-82
2023/09/06 08:47:48;;;;;;;5.00;1.60;;;22.40;84.50;;;;;;5011930;28;20108;-82
2023/09/06 08:50:15;;;;;;;5.55;1.77;;;22.40;84.30;;;;;;5012686;28;20068;-82
2023/09/06 08:52:42;;;;;;;3.72;1.67;;;22.50;84.20;;;;;;5015280;28;20447;-82
2023/09/06 08:55:10;;;;;;;3.78;1.48;;;22.60;84.10;;;;;;5015206;28;20077;-82
2023/09/06 08:57:36;;;;;;;3.90;1.80;;;22.70;84.00;;;;;;5015169;28;20077;-82
2023/09/06 09:00:03;;;;;;;3.95;1.88;;;22.80;83.80;;;;;;5015813;28;20025;-82
2023/09/06 09:02:29;;;;;;;4.30;1.92;;;22.80;83.60;;;;;;5015122;28;20040;-82
2023/09/06 09:04:55;;;;;;;5.05;1.85;;;22.90;83.50;;;;;;5015014;28;20038;-82
2023/09/06 09:07:21;;;;;;;5.13;1.63;;;23.00;83.30;;;;;;5015059;28;20658;-82
2023/09/06 09:09:58;;;;;;;5.40;2.50;;;23.00;83.10;;;;;;5015125;28;20022;-82
2023/09/06 09:12:25;;;;;;;4.00;1.90;;;23.10;82.80;;;;;;5015351;28;20025;-82
2023/09/06 09:14:52;;;;;;;4.85;1.90;;;23.20;82.60;;;;;;5015436;28;20113;-82
2023/09/06 09:17:21;;;;;;;5.20;1.70;;;23.30;82.30;;;;;;5014930;28;20026;-82
2023/09/06 09:19:56;;;;;;;4.32;1.75;;;23.30;82.00;;;;;;5015877;28;20050;-82
2023/09/06 09:22:35;;;;;;;3.22;1.30;;;23.40;81.70;;;;;;5013657;28;20073;-83
2023/09/06 09:25:15;;;;;;;4.20;1.50;;;23.50;81.50;;;;;;4997447;28;20076;-82
2023/09/06 09:27:44;;;;;;;5.25;1.80;;;23.60;81.50;;;;;;5014703;28;20084;-82
2023/09/06 09:30:12;;;;;;;3.67;1.55;;;23.60;81.20;;;;;;5014655;28;20435;-83
2023/09/06 09:32:39;;;;;;;6.72;1.80;;;23.70;80.70;;;;;;5014414;28;20026;-83
2023/09/06 09:35:12;;;;;;;6.13;1.80;;;23.80;80.30;;;;;;5014769;28;20026;-83
2023/09/06 09:37:49;;;;;;;5.03;1.42;;;23.80;79.90;;;;;;5015158;28;20037;-82
2023/09/06 09:40:31;;;;;;;4.38;1.80;;;23.90;79.80;;;;;;5014084;28;20026;-82
2023/09/06 09:43:00;;;;;;;4.10;1.65;;;24.00;79.60;;;;;;5014389;28;20038;-83
2023/09/06 09:45:30;;;;;;;6.53;1.60;;;24.10;80.10;;;;;;5014055;28;20401;-83
2023/09/06 09:47:59;;;;;;;3.30;1.48;;;24.10;79.40;;;;;;5014189;28;20050;-82
2023/09/06 09:50:29;;;;;;;4.47;1.73;;;24.20;79.70;;;;;;5014576;28;20061;-83
2023/09/06 09:52:55;;;;;;;4.97;1.60;;;24.30;79.00;;;;;;5014612;28;20029;-83
2023/09/06 09:55:27;;;;;;;6.85;1.33;;;24.30;78.80;;;;;;5014109;28;20033;-82
2023/09/06 09:57:54;;;;;;;4.40;1.30;;;24.40;78.70;;;;;;5014038;28;20018;-82
2023/09/06 10:00:28;;;;;;;6.53;2.15;;;24.50;78.20;;;;;;5014039;28;20037;-82
2023/09/06 10:02:57;;;;;;;3.42;1.23;;;24.50;77.80;;;;;;5011965;28;20010;-82
2023/09/06 10:05:26;;;;;;;4.57;1.52;;;24.70;78.00;;;;;;5012155;28;20045;-82
2023/09/06 10:07:55;;;;;;;5.18;1.67;;;24.90;77.80;;;;;;5013721;28;20029;-83
2023/09/06 10:10:24;;;;;;;3.70;1.60;;;25.10;77.20;;;;;;5013701;28;20517;-83
2023/09/06 10:12:52;;;;;;;4.82;1.60;;;25.40;76.20;;;;;;5013386;28;20045;-82
2023/09/06 10:15:24;;;;;;;4.05;1.40;;;25.80;75.40;;;;;;5013229;28;20116;-82
2023/09/06 10:17:54;;;;;;;3.17;1.50;;;26.20;75.10;;;;;;5013341;28;20061;-82
2023/09/06 10:20:26;;;;;;;3.38;1.23;;;26.70;75.00;;;;;;5013436;28;20018;-82
2023/09/06 10:22:56;;;;;;;2.83;1.30;;;27.30;74.60;;;;;;5012915;28;20564;-83
2023/09/06 10:25:22;;;;;;;3.33;1.40;;;28.00;73.80;;;;;;5013571;28;20540;-82
2023/09/06 10:27:49;;;;;;;3.58;1.35;;;28.80;72.40;;;;;;5013516;28;20061;-82
2023/09/06 10:30:19;;;;;;;4.03;1.40;;;29.60;71.30;;;;;;5013183;28;20091;-83
2023/09/06 10:32:46;;;;;;;2.75;1.10;;;30.40;69.80;;;;;;5013056;28;20026;-83
2023/09/06 10:35:20;;;;;;;3.75;1.30;;;31.20;67.90;;;;;;5011918;28;20119;-83
2023/09/06 10:38:04;;;;;;;3.90;1.30;;;31.90;65.70;;;;;;5013355;28;20026;-83
2023/09/06 10:40:50;;;;;;;3.78;1.00;;;32.70;63.10;;;;;;5013251;28;20022;-82
2023/09/06 10:43:17;;;;;;;2.95;1.30;;;33.50;61.50;;;;;;5012985;28;20033;-82
2023/09/06 10:45:55;;;;;;;4.65;1.38;;;34.30;61.50;;;;;;5013072;28;20096;-82
2023/09/06 10:48:21;;;;;;;2.55;1.23;;;35.00;58.50;;;;;;5012964;28;20076;-82
2023/09/06 10:51:07;;;;;;;3.13;1.55;;;35.60;58.10;;;;;;5013138;28;20037;-82
2023/09/06 10:53:36;;;;;;;4.25;1.40;;;36.30;55.70;;;;;;5013338;28;20129;-83
2023/09/06 10:56:03;;;;;;;2.10;1.30;;;37.00;55.40;;;;;;5013180;28;20022;-83
2023/09/06 10:58:30;;;;;;;5.03;1.25;;;37.50;54.50;;;;;;5012782;28;20021;-83
2023/09/06 11:01:24;;;;;;;6.28;1.45;;;37.90;53.00;;;;;;5012924;28;20477;-83
2023/09/06 11:03:54;;;;;;;5.80;1.20;;;38.40;50.40;;;;;;5014912;28;20045;-83
2023/09/06 11:06:19;;;;;;;3.13;1.60;;;38.80;50.10;;;;;;5011065;28;20512;-83
2023/09/06 11:08:47;;;;;;;3.45;1.60;;;39.20;49.20;;;;;;5016948;28;20045;-83
2023/09/06 11:11:14;;;;;;;3.03;1.33;;;39.60;47.80;;;;;;5021409;28;20025;-83
2023/09/06 11:13:41;;;;;;;5.13;1.48;;;39.90;46.60;;;;;;5020121;28;20109;-83
2023/09/06 11:16:12;;;;;;;4.10;1.75;;;40.20;45.40;;;;;;5016395;28;20091;-82
2023/09/06 11:18:48;;;;;;;5.47;1.75;;;40.40;44.60;;;;;;5021196;28;20030;-83
2023/09/06 11:21:22;;;;;;;4.68;1.60;;;40.70;43.40;;;;;;5020903;28;20366;-83
2023/09/06 11:23:53;;;;;;;4.25;1.50;;;41.00;42.70;;;;;;5021718;28;20113;-82
2023/09/06 11:26:19;;;;;;;1.95;1.35;;;41.20;42.60;;;;;;5020206;28;20120;-83
2023/09/06 11:28:49;;;;;;;2.78;1.70;;;41.40;42.40;;;;;;5012220;28;20030;-83
2023/09/06 11:31:25;;;;;;;2.67;1.27;;;41.60;41.90;;;;;;5014190;28;20521;-82
2023/09/06 11:34:04;;;;;;;3.35;1.63;;;41.80;41.10;;;;;;5031647;28;20116;-82
2023/09/06 11:36:32;;;;;;;2.70;1.30;;;42.10;40.20;;;;;;5031670;28;20503;-81
2023/09/06 11:38:59;;;;;;;2.97;1.67;;;42.10;40.30;;;;;;5031753;28;20116;-82
2023/09/06 11:41:26;;;;;;;5.10;1.30;;;42.00;39.90;;;;;;5031632;28;20029;-81
2023/09/06 11:43:56;;;;;;;3.60;1.60;;;41.80;39.40;;;;;;5031015;28;20026;-81
2023/09/06 11:46:24;;;;;;;3.53;1.50;;;41.60;39.10;;;;;;5031904;28;20075;-81
2023/09/06 11:48:51;;;;;;;3.58;1.40;;;41.40;38.90;;;;;;5031909;28;20049;-81
2023/09/06 11:51:21;;;;;;;3.42;1.77;;;41.20;38.80;;;;;;5030373;28;20084;-81
2023/09/06 11:53:54;;;;;;;3.40;1.45;;;41.00;38.80;;;;;;5031710;28;20025;-81
2023/09/06 11:56:29;;;;;;;;;;;40.90;38.90;;;;;;5032323;28;20057;-81
2023/09/06 11:58:59;;;;;;;3.47;1.48;;;40.70;39.20;;;;;;5031951;28;19955;-81
2023/09/06 12:01:26;;;;;;;3.38;1.42;;;40.50;39.40;;;;;;5031698;28;20026;-81
2023/09/06 12:03:54;;;;;;;5.05;1.77;;;40.40;39.10;;;;;;5031870;28;20030;-81
2023/09/06 12:06:19;;;;;;;3.58;1.65;;;40.30;38.90;;;;;;5031402;28;20052;-81
2023/09/06 12:08:45;;;;;;;3.30;1.65;;;40.30;38.90;;;;;;5032019;28;20022;-80
2023/09/06 12:11:14;;;;;;;7.03;1.83;;;40.30;38.90;;;;;;5031916;28;20029;-81
2023/09/06 12:13:41;;;;;;;3.80;1.90;;;40.30;38.80;;;;;;5031465;28;20036;-80
2023/09/06 12:16:09;;;;;;;3.53;1.88;;;40.30;38.60;;;;;;5031283;28;20053;-80
2023/09/06 12:18:36;;;;;;;5.03;1.80;;;40.30;38.70;;;;;;5030955;28;20585;-81
2023/09/06 12:21:05;;;;;;;5.32;1.85;;;40.20;38.60;;;;;;5030809;28;20029;-80
2023/09/06 12:23:32;;;;;;;4.10;1.90;;;40.30;38.60;;;;;;5031273;28;20034;-81
2023/09/06 12:26:01;;;;;;;3.70;1.70;;;40.30;38.60;;;;;;5033335;28;20037;-80
2023/09/06 12:28:28;;;;;;;4.05;1.95;;;40.30;39.30;;;;;;5035219;28;20029;-80
2023/09/06 12:30:55;;;;;;;3.65;1.75;;;40.40;38.60;;;;;;5027986;28;20021;-80
2023/09/06 12:33:22;;;;;;;3.80;1.58;;;40.50;38.60;;;;;;5023230;28;20024;-81
2023/09/06 12:36:02;;;;;;;4.50;1.80;;;40.50;38.60;;;;;;5001588;28;20047;-80
2023/09/06 12:38:29;;;;;;;2.92;1.48;;;40.60;38.50;;;;;;5029584;28;20027;-80
2023/09/06 12:40:56;;;;;;;3.75;1.55;;;40.70;38.50;;;;;;5030571;28;20017;-80
2023/09/06 12:43:24;;;;;;;4.85;1.90;;;40.70;38.40;;;;;;5025344;28;20595;-80
2023/09/06 12:45:50;;;;;;;3.45;1.83;;;40.80;38.40;;;;;;5023639;28;20121;-80
2023/09/06 12:48:16;;;;;;;4.57;1.60;;;40.80;38.30;;;;;;5024972;28;20022;-81
2023/09/06 12:50:42;;;;;;;3.58;1.60;;;41.00;38.40;;;;;;5025142;28;20072;-80
2023/09/06 12:53:07;;;;;;;6.53;1.70;;;41.00;38.30;;;;;;5023269;28;20014;-80
2023/09/06 12:55:34;;;;;;;2.28;1.20;;;41.10;38.40;;;;;;5024820;28;20029;-80